Marie — ONJC — position and weather

sailwx.info

Track history (hours):
 
Tides and Currents Weather Stations Pressure Air Temp Water Temp Dewpoint Dewpoint Depression Visibility Wind Speed Wind Dir Waves Ship Positions

Marie

Last reported at 2018-Aug-16 03:34 UTC. Time now 2018-Aug-16 07:58 UTC.
Position N 49°49' W 003°26'.

Length 89 m; draft 3.5 m.

Type: Ship. MMSI: 205724000.

Date/timePositionNaut miles runAvg speedWind from/ knotsBaromVisibWave heightAir tempDewpointWater temp
2018-Aug-16 03:34N 49°49' W 003°26'310.6
2018-Aug-16 03:16N 49°50' W 003°22'310.6
2018-Aug-16 02:59N 49°52' W 003°18'510.6
2018-Aug-16 02:30N 49°54' W 003°11'610.2
2018-Aug-16 01:55N 49°57' W 003°03'4 9.6
2018-Aug-16 01:30N 49°59' W 002°58'5 9.1
2018-Aug-16 00:58N 50°01' W 002°50'4 8.6
2018-Aug-16 00:29N 50°02' W 002°44'6 7.8
2018-Aug-15 23:43N 50°04' W 002°35'52 8.8
2018-Aug-15 17:50N 50°18' W 001°17'4412.0
2018-Aug-15 14:10N 50°30' W 000°11'6 9.2
2018-Aug-15 13:31N 50°32' W 000°02'0 8.9
2018-Aug-15 13:30N 50°32' W 000°02'5 8.3
2018-Aug-15 12:58N 50°33' E 000°05'8 7.6
2018-Aug-15 11:56N 50°35' E 000°17'3 7.1
2018-Aug-15 11:28N 50°36' E 000°22'3 7.3
2018-Aug-15 11:00N 50°37' E 000°27'4 8.1
2018-Aug-15 10:30N 50°38' E 000°33'5 9.1
2018-Aug-15 10:00N 50°41' E 000°39'510.2
2018-Aug-15 09:30N 50°44' E 000°45'611.2
2018-Aug-15 09:00N 50°47' E 000°53'611.7
2018-Aug-15 08:31N 50°50' E 001°00'611.9
2018-Aug-15 08:01N 50°54' E 001°08'611.7
2018-Aug-15 07:30N 50°58' E 001°15'611.4
2018-Aug-15 07:00N 51°01' E 001°22'510.6
2018-Aug-15 06:30N 51°05' E 001°28'5 9.5
2018-Aug-15 06:00N 51°08' E 001°34'4 8.3
2018-Aug-15 05:30N 51°11' E 001°39'4 7.8
2018-Aug-15 05:00N 51°13' E 001°44'4 7.8
2018-Aug-15 04:30N 51°16' E 001°47'4 7.5
2018-Aug-15 04:00N 51°20' E 001°50'4 7.4
2018-Aug-15 03:30N 51°23' E 001°53'4 7.7
2018-Aug-15 03:00N 51°26' E 001°56'4 8.6
2018-Aug-15 02:30N 51°30' E 001°60'5 9.4
2018-Aug-15 02:00N 51°33' E 002°05'5 9.8
2018-Aug-15 01:29N 51°37' E 002°10'510.1
2018-Aug-15 00:59N 51°41' E 002°16'3811.6
2018-Aug-14 21:42N 52°09' E 002°57'410.9
2018-Aug-14 21:22N 52°12' E 003°01'100 9.3
2018-Aug-14 10:35N 53°31' E 004°44'1 8.8
2018-Aug-14 10:29N 53°31' E 004°46'4 8.4
2018-Aug-14 10:00N 53°33' E 004°52'4 8.0
2018-Aug-14 09:30N 53°34' E 004°58'4 7.6
2018-Aug-14 09:00N 53°35' E 005°04'4 7.2
2018-Aug-14 08:30N 53°37' E 005°10'4 7.0
2018-Aug-14 08:00N 53°38' E 005°16'4 6.8
2018-Aug-14 07:28N 53°39' E 005°22'56 7.7
2018-Aug-14 00:11N 53°27' E 006°53'3 8.9
2018-Aug-13 23:51N 53°25' E 006°56'3 9.0
2018-Aug-13 23:30N 53°22' E 006°59'3 7.0
2018-Aug-13 23:00N 53°19' E 007°03'4 7.9
2018-Aug-13 22:30N 53°20' E 007°10'1 2.4
2018-Aug-13 22:00N 53°20' E 007°12'0 0.5
2018-Aug-13 21:28N 53°20' E 007°12'0 0.0
2018-Aug-13 20:58N 53°20' E 007°12'0 0.0
2018-Aug-13 20:28N 53°20' E 007°12'0 0.0
2018-Aug-13 19:58N 53°20' E 007°12'0 0.0
2018-Aug-13 19:28N 53°20' E 007°12'0 0.0
2018-Aug-13 18:59N 53°20' E 007°12'0 0.0
2018-Aug-13 18:28N 53°20' E 007°12'0 0.0
2018-Aug-13 17:58N 53°20' E 007°12'0 0.0
2018-Aug-13 17:28N 53°20' E 007°12'0 0.0
2018-Aug-13 16:58N 53°20' E 007°12'0 0.0
2018-Aug-13 16:26N 53°20' E 007°12'0 0.0
2018-Aug-13 15:58N 53°20' E 007°12'0 0.0
2018-Aug-13 15:29N 53°20' E 007°12'0 0.0
2018-Aug-13 14:58N 53°20' E 007°12'0 0.0
2018-Aug-13 14:28N 53°20' E 007°12'0 0.0
2018-Aug-13 13:58N 53°20' E 007°12'0 0.0
2018-Aug-13 13:28N 53°20' E 007°12'0 0.0
2018-Aug-13 12:58N 53°20' E 007°12'0 0.0
2018-Aug-13 12:28N 53°20' E 007°12'0 0.0
2018-Aug-13 11:58N 53°20' E 007°12'0 0.0
2018-Aug-13 11:28N 53°20' E 007°12'0 0.0
2018-Aug-13 10:58N 53°20' E 007°12'0 0.0
2018-Aug-13 10:28N 53°20' E 007°12'0 0.0
2018-Aug-13 09:58N 53°20' E 007°12'0 0.0
2018-Aug-13 09:28N 53°20' E 007°12'0 0.0
2018-Aug-13 08:59N 53°20' E 007°12'0 0.0
2018-Aug-13 08:28N 53°20' E 007°12'0 0.0
2018-Aug-13 07:57N 53°20' E 007°12'0 0.0
2018-Aug-13 07:28N 53°20' E 007°12'0 0.0
2018-Aug-13 06:58N 53°20' E 007°12'0 0.0
2018-Aug-13 06:27N 53°20' E 007°12'0 0.0
2018-Aug-13 05:58N 53°20' E 007°12'0 0.0
2018-Aug-13 05:28N 53°20' E 007°12'0 0.0
2018-Aug-13 04:59N 53°20' E 007°12'0 0.0
2018-Aug-13 04:28N 53°20' E 007°12'0 0.0
2018-Aug-13 03:58N 53°20' E 007°12'0 0.0
2018-Aug-13 03:28N 53°20' E 007°12'0 0.0
2018-Aug-13 02:58N 53°20' E 007°12'0 0.0
2018-Aug-13 02:28N 53°20' E 007°12'0 0.0
2018-Aug-13 01:58N 53°20' E 007°12'0 0.0
2018-Aug-13 01:22N 53°20' E 007°12'0 0.0
2018-Aug-13 00:58N 53°20' E 007°12'0 0.0
2018-Aug-13 00:28N 53°20' E 007°12'0 0.0
2018-Aug-12 23:59N 53°20' E 007°12'0 0.0
2018-Aug-12 23:30N 53°20' E 007°12'0 0.0
2018-Aug-12 23:01N 53°20' E 007°12'0 0.0
2018-Aug-12 22:30N 53°20' E 007°12'0 0.0
2018-Aug-12 21:58N 53°20' E 007°12'0 0.0
2018-Aug-12 21:28N 53°20' E 007°12'0 0.0
2018-Aug-12 21:00N 53°20' E 007°12'0 0.0
2018-Aug-12 20:28N 53°20' E 007°12'0 0.0
2018-Aug-12 19:58N 53°20' E 007°12'0 0.0
2018-Aug-12 19:28N 53°20' E 007°12'0 0.0
2018-Aug-12 18:58N 53°20' E 007°12'0 0.0
2018-Aug-12 18:28N 53°20' E 007°12'0 0.0
2018-Aug-12 17:58N 53°20' E 007°12'0 0.0
2018-Aug-12 17:28N 53°20' E 007°12'0 0.0
2018-Aug-12 16:58N 53°20' E 007°12'0 0.0
2018-Aug-12 16:28N 53°20' E 007°12'0 0.0
2018-Aug-12 15:58N 53°20' E 007°12'0 0.0
2018-Aug-12 15:28N 53°20' E 007°12'0 0.0
2018-Aug-12 14:58N 53°20' E 007°12'0 0.0
2018-Aug-12 14:28N 53°20' E 007°12'0 0.0
2018-Aug-12 13:58N 53°20' E 007°12'0 0.0
2018-Aug-12 13:29N 53°20' E 007°12'0 0.0
2018-Aug-12 12:59N 53°20' E 007°12'0 0.0
2018-Aug-12 12:29N 53°20' E 007°12'0 0.0
2018-Aug-12 11:59N 53°20' E 007°12'0 0.0
2018-Aug-12 11:29N 53°20' E 007°12'0 0.0
2018-Aug-12 10:59N 53°20' E 007°12'0 0.0
2018-Aug-12 10:29N 53°20' E 007°12'0 0.0
2018-Aug-12 09:59N 53°20' E 007°12'0 0.0
2018-Aug-12 09:29N 53°20' E 007°12'0 0.0
2018-Aug-12 08:59N 53°20' E 007°12'0 0.0
2018-Aug-12 08:29N 53°20' E 007°12'0 0.0
2018-Aug-12 07:59N 53°20' E 007°12'0 0.0
2018-Aug-12 07:29N 53°20' E 007°12'0 0.0
2018-Aug-12 06:59N 53°20' E 007°12'0 0.0
2018-Aug-12 06:30N 53°20' E 007°12'0 0.0
2018-Aug-12 05:56N 53°20' E 007°12'0 0.0
2018-Aug-12 05:29N 53°20' E 007°12'0 0.0
2018-Aug-12 04:59N 53°20' E 007°12'0 0.0
2018-Aug-12 04:29N 53°20' E 007°12'0 0.0
2018-Aug-12 04:00N 53°20' E 007°12'0 0.0
2018-Aug-12 03:25N 53°20' E 007°12'0 0.0
2018-Aug-12 02:59N 53°20' E 007°12'0 0.0
2018-Aug-12 02:29N 53°20' E 007°12'0 0.0
2018-Aug-12 01:59N 53°20' E 007°12'0 0.0
2018-Aug-12 01:29N 53°20' E 007°12'0 0.0
2018-Aug-12 00:59N 53°20' E 007°12'0 0.0
2018-Aug-12 00:29N 53°20' E 007°12'0 0.0
2018-Aug-11 23:59N 53°20' E 007°12'0 0.0
2018-Aug-11 23:29N 53°20' E 007°12'0 0.0
2018-Aug-11 22:59N 53°20' E 007°12'0 0.0
2018-Aug-11 22:25N 53°20' E 007°12'0 0.0
2018-Aug-11 22:00N 53°20' E 007°12'0 0.0
2018-Aug-11 21:29N 53°20' E 007°12'0 0.0
2018-Aug-11 21:00N 53°20' E 007°12'0 0.0
2018-Aug-11 20:29N 53°20' E 007°12'0 0.0
2018-Aug-11 19:59N 53°20' E 007°12'0 0.0
2018-Aug-11 19:30N 53°20' E 007°12'0 0.0
2018-Aug-11 19:00N 53°20' E 007°12'0 0.0
2018-Aug-11 18:29N 53°20' E 007°12'0 0.0
2018-Aug-11 18:01N 53°20' E 007°12'0 0.0
2018-Aug-11 17:30N 53°20' E 007°12'0 0.0
2018-Aug-11 17:00N 53°20' E 007°12'0 0.0
2018-Aug-11 16:30N 53°20' E 007°12'0 0.0
2018-Aug-11 16:00N 53°20' E 007°12'0 0.0
2018-Aug-11 15:30N 53°20' E 007°12'0 0.0
2018-Aug-11 15:00N 53°20' E 007°12'0 0.0
2018-Aug-11 14:26N 53°20' E 007°12'0 0.0
2018-Aug-11 14:01N 53°20' E 007°12'0 0.0
2018-Aug-11 13:30N 53°20' E 007°12'0 0.0
2018-Aug-11 13:00N 53°20' E 007°12'0 0.0
2018-Aug-11 12:26N 53°20' E 007°12'0 0.0
2018-Aug-11 12:00N 53°20' E 007°12'0 0.0
2018-Aug-11 11:30N 53°20' E 007°12'0 0.0
2018-Aug-11 11:00N 53°20' E 007°12'0 0.0
2018-Aug-11 10:30N 53°20' E 007°12'0 0.0
2018-Aug-11 10:00N 53°20' E 007°12'0 0.0
2018-Aug-11 09:30N 53°20' E 007°12'0 0.0
2018-Aug-11 09:00N 53°20' E 007°12'0 0.0
2018-Aug-11 08:30N 53°20' E 007°12'0 0.0
2018-Aug-11 08:00N 53°20' E 007°12'0 0.0
2018-Aug-11 07:30N 53°20' E 007°12'0 0.0
2018-Aug-11 07:00N 53°20' E 007°12'0 0.0
2018-Aug-11 06:30N 53°20' E 007°12'0 0.0
2018-Aug-11 06:00N 53°20' E 007°12'0 0.0
2018-Aug-11 05:30N 53°20' E 007°12'0 0.0
2018-Aug-11 05:00N 53°20' E 007°12'0 0.0
2018-Aug-11 04:30N 53°20' E 007°12'0 0.0
2018-Aug-11 04:01N 53°20' E 007°12'0 0.0
2018-Aug-11 03:30N 53°20' E 007°12'0 0.0
2018-Aug-11 03:00N 53°20' E 007°12'0 0.0
2018-Aug-11 02:30N 53°20' E 007°12'0 0.0
2018-Aug-11 02:00N 53°20' E 007°12'0 0.0
2018-Aug-11 01:30N 53°20' E 007°12'0 0.0
2018-Aug-11 01:00N 53°20' E 007°12'0 0.0
2018-Aug-11 00:30N 53°20' E 007°12'0 0.0
2018-Aug-11 00:00N 53°20' E 007°12'0 0.0
2018-Aug-10 23:30N 53°20' E 007°12'0 0.0
2018-Aug-10 23:00N 53°20' E 007°12'0 0.0
2018-Aug-10 22:30N 53°20' E 007°12'0 0.0
2018-Aug-10 22:00N 53°20' E 007°12'0 0.0
2018-Aug-10 21:28N 53°20' E 007°12'0 0.0
2018-Aug-10 21:00N 53°20' E 007°12'0 0.0
2018-Aug-10 20:30N 53°20' E 007°12'0 0.0
2018-Aug-10 20:00N 53°20' E 007°12'0 0.0
2018-Aug-10 19:30N 53°20' E 007°12'0 0.0
2018-Aug-10 19:01N 53°20' E 007°12'0 0.0
2018-Aug-10 18:30N 53°20' E 007°12'0 0.0
2018-Aug-10 17:54N 53°20' E 007°12'0 0.0
2018-Aug-10 17:30N 53°20' E 007°12'0 0.0
2018-Aug-10 16:58N 53°20' E 007°12'0 0.0
2018-Aug-10 16:28N 53°20' E 007°12'0 0.0
2018-Aug-10 15:58N 53°20' E 007°12'0 0.0
2018-Aug-10 15:28N 53°20' E 007°12'0 0.0
2018-Aug-10 14:58N 53°20' E 007°12'0 0.0
2018-Aug-10 14:28N 53°20' E 007°12'0 0.0
2018-Aug-10 13:58N 53°20' E 007°12'0 0.0
2018-Aug-10 13:28N 53°20' E 007°12'0 0.0
2018-Aug-10 12:58N 53°20' E 007°12'0 0.0
2018-Aug-10 12:28N 53°20' E 007°12'0 0.0
2018-Aug-10 11:58N 53°20' E 007°12'0 0.0
2018-Aug-10 11:29N 53°20' E 007°12'0 0.0
2018-Aug-10 10:58N 53°20' E 007°12'0 0.0
2018-Aug-10 10:28N 53°20' E 007°12'0 0.0
2018-Aug-10 09:59N 53°20' E 007°12'0 0.0
2018-Aug-10 09:29N 53°20' E 007°12'0 0.0
2018-Aug-10 08:59N 53°20' E 007°12'0 0.0
2018-Aug-10 08:29N 53°20' E 007°12'0 0.0
2018-Aug-10 07:59N 53°20' E 007°12'0 0.0
2018-Aug-10 07:28N 53°20' E 007°12'0 0.0
2018-Aug-10 06:59N 53°20' E 007°12'0 0.0
2018-Aug-10 06:29N 53°20' E 007°12'0 0.0
2018-Aug-10 05:56N 53°20' E 007°12'0 0.0
2018-Aug-10 05:28N 53°20' E 007°12'0 0.2
2018-Aug-10 05:00N 53°20' E 007°12'0 0.9
2018-Aug-10 04:29N 53°20' E 007°11'1 2.5
2018-Aug-10 04:00N 53°20' E 007°09'3 5.9
2018-Aug-10 03:25N 53°19' E 007°03'1 2.7
2018-Aug-10 02:59N 53°19' E 007°02'0 0.1
2018-Aug-10 02:29N 53°19' E 007°01'0 0.0
2018-Aug-10 01:59N 53°19' E 007°01'0 0.0
2018-Aug-10 01:29N 53°19' E 007°01'0 0.0
2018-Aug-10 00:55N 53°19' E 007°01'0 0.0
2018-Aug-10 00:29N 53°19' E 007°01'0 0.0
2018-Aug-09 23:59N 53°19' E 007°01'0 0.1
2018-Aug-09 23:25N 53°19' E 007°02'0 0.1
2018-Aug-09 22:55N 53°19' E 007°02'0 0.0
2018-Aug-09 22:25N 53°19' E 007°02'0 0.1
2018-Aug-09 21:59N 53°19' E 007°02'0 0.0
2018-Aug-09 21:29N 53°19' E 007°02'0 0.0
2018-Aug-09 20:43N 53°19' E 007°02'0 1.7
2018-Aug-09 20:30N 53°19' E 007°02'2 3.2
2018-Aug-09 20:01N 53°20' E 006°60'611.3
2018-Aug-09 19:29N 53°25' E 006°56'55 9.6
2018-Aug-09 13:48N 53°33' E 005°25'410.0
2018-Aug-09 13:21N 53°32' E 005°18'5 9.6
2018-Aug-09 12:50N 53°30' E 005°09'3 9.4
2018-Aug-09 12:29N 53°29' E 005°04'5 9.5
2018-Aug-09 11:56N 53°27' E 004°56'4 9.2
2018-Aug-09 11:30N 53°25' E 004°50'16 9.1
2018-Aug-09 09:43N 53°12' E 004°34'15 9.6
2018-Aug-09 08:12N 52°60' E 004°22'2 9.6
2018-Aug-09 08:00N 52°58' E 004°21'5 9.5
2018-Aug-09 07:30N 52°54' E 004°17'5 9.4
2018-Aug-09 07:00N 52°50' E 004°13'7 9.5
2018-Aug-09 06:18N 52°45' E 004°06'3 9.3
2018-Aug-09 06:00N 52°43' E 004°03'8 9.4
2018-Aug-09 05:07N 52°37' E 003°54'9 9.9
2018-Aug-09 04:16N 52°30' E 003°44'310.2
2018-Aug-09 03:58N 52°28' E 003°40'610.4
2018-Aug-09 03:25N 52°24' E 003°34'510.7
2018-Aug-09 02:55N 52°20' E 003°28'510.9
2018-Aug-09 02:25N 52°16' E 003°22'5111.1
2018-Aug-08 21:47N 51°52' E 002°08'310.9
2018-Aug-08 21:30N 51°51' E 002°03'610.9
2018-Aug-08 21:00N 51°49' E 001°55'5 9.4
2018-Aug-08 20:30N 51°49' E 001°48'5 9.8
2018-Aug-08 20:00N 51°51' E 001°40'5 9.2
2018-Aug-08 19:31N 51°52' E 001°33'4 8.3
2018-Aug-08 19:00N 51°56' E 001°29'5 9.3
2018-Aug-08 18:30N 51°56' E 001°22'4 7.7
2018-Aug-08 18:01N 51°58' E 001°17'3 6.5
2018-Aug-08 17:30N 52°00' E 001°13'3 5.5
2018-Aug-08 17:00N 52°02' E 001°10'0 0.0
2018-Aug-08 16:30N 52°02' E 001°10'0 0.0
2018-Aug-08 15:59N 52°02' E 001°10'0 0.0
2018-Aug-08 15:29N 52°02' E 001°10'0 0.0
2018-Aug-08 14:59N 52°02' E 001°10'0 0.0
2018-Aug-08 14:29N 52°02' E 001°10'0 0.0
2018-Aug-08 13:59N 52°02' E 001°10'0 0.0
2018-Aug-08 13:29N 52°02' E 001°10'0 0.0
2018-Aug-08 12:59N 52°02' E 001°10'0 0.0
2018-Aug-08 12:29N 52°02' E 001°10'0 0.0
2018-Aug-08 11:59N 52°02' E 001°10'0 0.0
2018-Aug-08 11:29N 52°02' E 001°10'0 0.0
2018-Aug-08 10:59N 52°02' E 001°10'0 0.0
2018-Aug-08 10:29N 52°02' E 001°10'0 0.0
2018-Aug-08 09:59N 52°02' E 001°10'0 0.0
2018-Aug-08 09:29N 52°02' E 001°10'0 0.0
2018-Aug-08 08:59N 52°02' E 001°10'0 0.0
2018-Aug-08 08:29N 52°02' E 001°10'0 0.0
2018-Aug-08 07:59N 52°02' E 001°10'0 0.0
2018-Aug-08 07:29N 52°02' E 001°10'0 0.0
2018-Aug-08 06:59N 52°02' E 001°10'0 0.0
2018-Aug-08 06:29N 52°02' E 001°10'0 0.0
2018-Aug-08 05:59N 52°02' E 001°10'0 0.0
2018-Aug-08 05:29N 52°02' E 001°10'0 0.0
2018-Aug-08 04:59N 52°02' E 001°10'0 0.0
2018-Aug-08 04:30N 52°02' E 001°10'0 0.0
2018-Aug-08 04:00N 52°02' E 001°10'0 0.0
2018-Aug-08 03:30N 52°02' E 001°10'0 0.0
2018-Aug-08 03:00N 52°02' E 001°10'0 0.0
2018-Aug-08 02:30N 52°02' E 001°10'0 0.0
2018-Aug-08 02:00N 52°02' E 001°10'0 0.0
2018-Aug-08 01:28N 52°02' E 001°10'0 0.0
2018-Aug-08 01:00N 52°02' E 001°10'0 0.0
2018-Aug-08 00:30N 52°02' E 001°10'0 0.0
2018-Aug-08 00:00N 52°02' E 001°10'0 0.0
2018-Aug-07 23:30N 52°02' E 001°10'0 0.0
2018-Aug-07 23:00N 52°02' E 001°10'0 0.0
2018-Aug-07 22:30N 52°02' E 001°10'0 0.0
2018-Aug-07 22:00N 52°02' E 001°10'0 0.0
2018-Aug-07 21:30N 52°02' E 001°10'0 0.0
2018-Aug-07 21:00N 52°02' E 001°10'0 0.0
2018-Aug-07 20:30N 52°02' E 001°10'0 0.0
2018-Aug-07 19:58N 52°02' E 001°10'0 0.0
2018-Aug-07 19:28N 52°02' E 001°10'0 0.0
2018-Aug-07 18:58N 52°02' E 001°10'0 0.0
2018-Aug-07 18:29N 52°02' E 001°10'0 0.0
2018-Aug-07 17:59N 52°02' E 001°10'0 0.0
2018-Aug-07 17:29N 52°02' E 001°10'0 0.0
2018-Aug-07 16:59N 52°02' E 001°10'0 0.0
2018-Aug-07 16:29N 52°02' E 001°10'0 0.0
2018-Aug-07 15:59N 52°02' E 001°10'0 0.0
2018-Aug-07 15:29N 52°02' E 001°10'0 0.0
2018-Aug-07 14:59N 52°02' E 001°10'0 0.0
2018-Aug-07 14:29N 52°02' E 001°10'0 0.0
2018-Aug-07 13:59N 52°02' E 001°10'0 0.0
2018-Aug-07 13:29N 52°02' E 001°10'0 0.0
2018-Aug-07 12:59N 52°02' E 001°10'0 0.0
2018-Aug-07 12:29N 52°02' E 001°10'0 0.0
2018-Aug-07 11:59N 52°02' E 001°10'0 0.0
2018-Aug-07 11:29N 52°02' E 001°10'0 0.0
2018-Aug-07 10:59N 52°02' E 001°10'0 0.0
2018-Aug-07 10:29N 52°02' E 001°10'0 0.0
2018-Aug-07 09:59N 52°02' E 001°10'0 0.0
2018-Aug-07 09:29N 52°02' E 001°10'0 0.0
2018-Aug-07 08:59N 52°02' E 001°10'0 0.0
2018-Aug-07 08:29N 52°02' E 001°10'0 0.0
2018-Aug-07 07:56N 52°02' E 001°10'0 0.0
2018-Aug-07 07:29N 52°02' E 001°10'0 0.0
2018-Aug-07 06:59N 52°02' E 001°10'0 0.0
2018-Aug-07 06:29N 52°02' E 001°10'0 0.0
2018-Aug-07 05:56N 52°02' E 001°10'0 0.0
2018-Aug-07 05:29N 52°02' E 001°10'0 0.0
2018-Aug-07 04:59N 52°02' E 001°10'0 0.0
2018-Aug-07 04:29N 52°02' E 001°10'0 0.0
2018-Aug-07 03:59N 52°02' E 001°10'0 0.0
2018-Aug-07 03:29N 52°02' E 001°10'0 0.0
2018-Aug-07 02:59N 52°02' E 001°10'0 0.0
2018-Aug-07 02:29N 52°02' E 001°10'0 0.0
2018-Aug-07 01:56N 52°02' E 001°10'0 0.0
2018-Aug-07 01:26N 52°02' E 001°10'0 0.0
2018-Aug-07 00:59N 52°02' E 001°10'0 0.0
2018-Aug-07 00:29N 52°02' E 001°10'0 0.0
2018-Aug-06 23:59N 52°02' E 001°10'0 0.0
2018-Aug-06 23:29N 52°02' E 001°10'0 0.0
2018-Aug-06 22:59N 52°02' E 001°10'0 0.0
2018-Aug-06 22:29N 52°02' E 001°10'0 0.0
2018-Aug-06 21:59N 52°02' E 001°10'0 0.0
2018-Aug-06 21:29N 52°02' E 001°10'0 0.0
2018-Aug-06 20:59N 52°02' E 001°10'0 0.0
2018-Aug-06 20:29N 52°02' E 001°10'0 0.0
2018-Aug-06 20:00N 52°02' E 001°10'0 0.9
2018-Aug-06 19:31N 52°02' E 001°09'3 6.5
2018-Aug-06 19:00N 52°00' E 001°13'4 8.0
2018-Aug-06 18:30N 51°57' E 001°18'4 7.5
2018-Aug-06 18:00N 51°56' E 001°24'5 9.3
2018-Aug-06 17:30N 51°56' E 001°31'2 5.0
2018-Aug-06 17:00N 51°55' E 001°34'2 4.9
2018-Aug-06 16:30N 51°52' E 001°34'3 5.4
2018-Aug-06 16:00N 51°51' E 001°38'3 6.9
2018-Aug-06 15:30N 51°53' E 001°43'2 4.3
2018-Aug-06 15:00N 51°51' E 001°46'2 5.0
2018-Aug-06 14:30N 51°49' E 001°48'3 6.7
2018-Aug-06 14:00N 51°46' E 001°49'4 7.9
2018-Aug-06 13:30N 51°42' E 001°50'4 8.2
2018-Aug-06 13:00N 51°38' E 001°51'4 8.3
2018-Aug-06 12:30N 51°34' E 001°54'4 8.1
2018-Aug-06 12:00N 51°31' E 001°57'4 7.3
2018-Aug-06 11:30N 51°27' E 001°59'4 7.7
2018-Aug-06 11:00N 51°24' E 002°02'4 7.8
2018-Aug-06 10:30N 51°20' E 002°05'4 7.4
2018-Aug-06 10:00N 51°17' E 002°06'4 8.9
2018-Aug-06 09:30N 51°13' E 002°01'4 8.6
2018-Aug-06 09:00N 51°11' E 001°56'4 8.7
2018-Aug-06 08:30N 51°08' E 001°50'4 9.0
2018-Aug-06 08:00N 51°05' E 001°45'5 9.4
2018-Aug-06 07:30N 51°01' E 001°40'5 9.8
2018-Aug-06 06:59N 50°57' E 001°35'510.3
2018-Aug-06 06:30N 50°54' E 001°30'510.7
2018-Aug-06 06:00N 50°48' E 001°28'510.0
2018-Aug-06 05:30N 50°44' E 001°25'5 9.6
2018-Aug-06 05:00N 50°40' E 001°21'5 9.3
2018-Aug-06 04:30N 50°37' E 001°15'5 9.1
2018-Aug-06 04:00N 50°34' E 001°10'  
Track history (hours):
 
Tides and Currents Weather Stations Pressure Air Temp Water Temp Dewpoint Dewpoint Depression Visibility Wind Speed Wind Dir Waves Ship Positions

Marie

Last reported at 2018-Aug-16 03:34 UTC. Time now 2018-Aug-16 07:58 UTC.
Position N 49°49' W 003°26'.

Length 89 m; draft 3.5 m.

Type: Ship. MMSI: 205724000.

Date/timePositionNaut miles runAvg speedWind from/ knotsBaromVisibWave heightAir tempDewpointWater temp
2018-Aug-16 03:34N 49°49' W 003°26'310.6
2018-Aug-16 03:16N 49°50' W 003°22'310.6
2018-Aug-16 02:59N 49°52' W 003°18'510.6
2018-Aug-16 02:30N 49°54' W 003°11'610.2
2018-Aug-16 01:55N 49°57' W 003°03'4 9.6
2018-Aug-16 01:30N 49°59' W 002°58'5 9.1
2018-Aug-16 00:58N 50°01' W 002°50'4 8.6
2018-Aug-16 00:29N 50°02' W 002°44'6 7.8
2018-Aug-15 23:43N 50°04' W 002°35'52 8.8
2018-Aug-15 17:50N 50°18' W 001°17'4412.0
2018-Aug-15 14:10N 50°30' W 000°11'6 9.2
2018-Aug-15 13:31N 50°32' W 000°02'0 8.9
2018-Aug-15 13:30N 50°32' W 000°02'5 8.3
2018-Aug-15 12:58N 50°33' E 000°05'8 7.6
2018-Aug-15 11:56N 50°35' E 000°17'3 7.1
2018-Aug-15 11:28N 50°36' E 000°22'3 7.3
2018-Aug-15 11:00N 50°37' E 000°27'4 8.1
2018-Aug-15 10:30N 50°38' E 000°33'5 9.1
2018-Aug-15 10:00N 50°41' E 000°39'510.2
2018-Aug-15 09:30N 50°44' E 000°45'611.2
2018-Aug-15 09:00N 50°47' E 000°53'611.7
2018-Aug-15 08:31N 50°50' E 001°00'611.9
2018-Aug-15 08:01N 50°54' E 001°08'611.7
2018-Aug-15 07:30N 50°58' E 001°15'611.4
2018-Aug-15 07:00N 51°01' E 001°22'510.6
2018-Aug-15 06:30N 51°05' E 001°28'5 9.5
2018-Aug-15 06:00N 51°08' E 001°34'4 8.3
2018-Aug-15 05:30N 51°11' E 001°39'4 7.8
2018-Aug-15 05:00N 51°13' E 001°44'4 7.8
2018-Aug-15 04:30N 51°16' E 001°47'4 7.5
2018-Aug-15 04:00N 51°20' E 001°50'4 7.4
2018-Aug-15 03:30N 51°23' E 001°53'4 7.7
2018-Aug-15 03:00N 51°26' E 001°56'4 8.6
2018-Aug-15 02:30N 51°30' E 001°60'5 9.4
2018-Aug-15 02:00N 51°33' E 002°05'5 9.8
2018-Aug-15 01:29N 51°37' E 002°10'510.1
2018-Aug-15 00:59N 51°41' E 002°16'3811.6
2018-Aug-14 21:42N 52°09' E 002°57'410.9
2018-Aug-14 21:22N 52°12' E 003°01'100 9.3
2018-Aug-14 10:35N 53°31' E 004°44'1 8.8
2018-Aug-14 10:29N 53°31' E 004°46'4 8.4
2018-Aug-14 10:00N 53°33' E 004°52'4 8.0
2018-Aug-14 09:30N 53°34' E 004°58'4 7.6
2018-Aug-14 09:00N 53°35' E 005°04'4 7.2
2018-Aug-14 08:30N 53°37' E 005°10'4 7.0
2018-Aug-14 08:00N 53°38' E 005°16'4 6.8
2018-Aug-14 07:28N 53°39' E 005°22'56 7.7
2018-Aug-14 00:11N 53°27' E 006°53'3 8.9
2018-Aug-13 23:51N 53°25' E 006°56'3 9.0
2018-Aug-13 23:30N 53°22' E 006°59'3 7.0
2018-Aug-13 23:00N 53°19' E 007°03'4 7.9
2018-Aug-13 22:30N 53°20' E 007°10'1 2.4
2018-Aug-13 22:00N 53°20' E 007°12'0 0.5
2018-Aug-13 21:28N 53°20' E 007°12'0 0.0
2018-Aug-13 20:58N 53°20' E 007°12'0 0.0
2018-Aug-13 20:28N 53°20' E 007°12'0 0.0
2018-Aug-13 19:58N 53°20' E 007°12'0 0.0
2018-Aug-13 19:28N 53°20' E 007°12'0 0.0
2018-Aug-13 18:59N 53°20' E 007°12'0 0.0
2018-Aug-13 18:28N 53°20' E 007°12'0 0.0
2018-Aug-13 17:58N 53°20' E 007°12'0 0.0
2018-Aug-13 17:28N 53°20' E 007°12'0 0.0
2018-Aug-13 16:58N 53°20' E 007°12'0 0.0
2018-Aug-13 16:26N 53°20' E 007°12'0 0.0
2018-Aug-13 15:58N 53°20' E 007°12'0 0.0
2018-Aug-13 15:29N 53°20' E 007°12'0 0.0
2018-Aug-13 14:58N 53°20' E 007°12'0 0.0
2018-Aug-13 14:28N 53°20' E 007°12'0 0.0
2018-Aug-13 13:58N 53°20' E 007°12'0 0.0
2018-Aug-13 13:28N 53°20' E 007°12'0 0.0
2018-Aug-13 12:58N 53°20' E 007°12'0 0.0
2018-Aug-13 12:28N 53°20' E 007°12'0 0.0
2018-Aug-13 11:58N 53°20' E 007°12'0 0.0
2018-Aug-13 11:28N 53°20' E 007°12'0 0.0
2018-Aug-13 10:58N 53°20' E 007°12'0 0.0
2018-Aug-13 10:28N 53°20' E 007°12'0 0.0
2018-Aug-13 09:58N 53°20' E 007°12'0 0.0
2018-Aug-13 09:28N 53°20' E 007°12'0 0.0
2018-Aug-13 08:59N 53°20' E 007°12'0 0.0
2018-Aug-13 08:28N 53°20' E 007°12'0 0.0
2018-Aug-13 07:57N 53°20' E 007°12'0 0.0
2018-Aug-13 07:28N 53°20' E 007°12'0 0.0
2018-Aug-13 06:58N 53°20' E 007°12'0 0.0
2018-Aug-13 06:27N 53°20' E 007°12'0 0.0
2018-Aug-13 05:58N 53°20' E 007°12'0 0.0
2018-Aug-13 05:28N 53°20' E 007°12'0 0.0
2018-Aug-13 04:59N 53°20' E 007°12'0 0.0
2018-Aug-13 04:28N 53°20' E 007°12'0 0.0
2018-Aug-13 03:58N 53°20' E 007°12'0 0.0
2018-Aug-13 03:28N 53°20' E 007°12'0 0.0
2018-Aug-13 02:58N 53°20' E 007°12'0 0.0
2018-Aug-13 02:28N 53°20' E 007°12'0 0.0
2018-Aug-13 01:58N 53°20' E 007°12'0 0.0
2018-Aug-13 01:22N 53°20' E 007°12'0 0.0
2018-Aug-13 00:58N 53°20' E 007°12'0 0.0
2018-Aug-13 00:28N 53°20' E 007°12'0 0.0
2018-Aug-12 23:59N 53°20' E 007°12'0 0.0
2018-Aug-12 23:30N 53°20' E 007°12'0 0.0
2018-Aug-12 23:01N 53°20' E 007°12'0 0.0
2018-Aug-12 22:30N 53°20' E 007°12'0 0.0
2018-Aug-12 21:58N 53°20' E 007°12'0 0.0
2018-Aug-12 21:28N 53°20' E 007°12'0 0.0
2018-Aug-12 21:00N 53°20' E 007°12'0 0.0
2018-Aug-12 20:28N 53°20' E 007°12'0 0.0
2018-Aug-12 19:58N 53°20' E 007°12'0 0.0
2018-Aug-12 19:28N 53°20' E 007°12'0 0.0
2018-Aug-12 18:58N 53°20' E 007°12'0 0.0
2018-Aug-12 18:28N 53°20' E 007°12'0 0.0
2018-Aug-12 17:58N 53°20' E 007°12'0 0.0
2018-Aug-12 17:28N 53°20' E 007°12'0 0.0
2018-Aug-12 16:58N 53°20' E 007°12'0 0.0
2018-Aug-12 16:28N 53°20' E 007°12'0 0.0
2018-Aug-12 15:58N 53°20' E 007°12'0 0.0
2018-Aug-12 15:28N 53°20' E 007°12'0 0.0
2018-Aug-12 14:58N 53°20' E 007°12'0 0.0
2018-Aug-12 14:28N 53°20' E 007°12'0 0.0
2018-Aug-12 13:58N 53°20' E 007°12'0 0.0
2018-Aug-12 13:29N 53°20' E 007°12'0 0.0
2018-Aug-12 12:59N 53°20' E 007°12'0 0.0
2018-Aug-12 12:29N 53°20' E 007°12'0 0.0
2018-Aug-12 11:59N 53°20' E 007°12'0 0.0
2018-Aug-12 11:29N 53°20' E 007°12'0 0.0
2018-Aug-12 10:59N 53°20' E 007°12'0 0.0
2018-Aug-12 10:29N 53°20' E 007°12'0 0.0
2018-Aug-12 09:59N 53°20' E 007°12'0 0.0
2018-Aug-12 09:29N 53°20' E 007°12'0 0.0
2018-Aug-12 08:59N 53°20' E 007°12'0 0.0
2018-Aug-12 08:29N 53°20' E 007°12'0 0.0
2018-Aug-12 07:59N 53°20' E 007°12'0 0.0
2018-Aug-12 07:29N 53°20' E 007°12'0 0.0
2018-Aug-12 06:59N 53°20' E 007°12'0 0.0
2018-Aug-12 06:30N 53°20' E 007°12'0 0.0
2018-Aug-12 05:56N 53°20' E 007°12'0 0.0
2018-Aug-12 05:29N 53°20' E 007°12'0 0.0
2018-Aug-12 04:59N 53°20' E 007°12'0 0.0
2018-Aug-12 04:29N 53°20' E 007°12'0 0.0
2018-Aug-12 04:00N 53°20' E 007°12'0 0.0
2018-Aug-12 03:25N 53°20' E 007°12'0 0.0
2018-Aug-12 02:59N 53°20' E 007°12'0 0.0
2018-Aug-12 02:29N 53°20' E 007°12'0 0.0
2018-Aug-12 01:59N 53°20' E 007°12'0 0.0
2018-Aug-12 01:29N 53°20' E 007°12'0 0.0
2018-Aug-12 00:59N 53°20' E 007°12'0 0.0
2018-Aug-12 00:29N 53°20' E 007°12'0 0.0
2018-Aug-11 23:59N 53°20' E 007°12'0 0.0
2018-Aug-11 23:29N 53°20' E 007°12'0 0.0
2018-Aug-11 22:59N 53°20' E 007°12'0 0.0
2018-Aug-11 22:25N 53°20' E 007°12'0 0.0
2018-Aug-11 22:00N 53°20' E 007°12'0 0.0
2018-Aug-11 21:29N 53°20' E 007°12'0 0.0
2018-Aug-11 21:00N 53°20' E 007°12'0 0.0
2018-Aug-11 20:29N 53°20' E 007°12'0 0.0
2018-Aug-11 19:59N 53°20' E 007°12'0 0.0
2018-Aug-11 19:30N 53°20' E 007°12'0 0.0
2018-Aug-11 19:00N 53°20' E 007°12'0 0.0
2018-Aug-11 18:29N 53°20' E 007°12'0 0.0
2018-Aug-11 18:01N 53°20' E 007°12'0 0.0
2018-Aug-11 17:30N 53°20' E 007°12'0 0.0
2018-Aug-11 17:00N 53°20' E 007°12'0 0.0
2018-Aug-11 16:30N 53°20' E 007°12'0 0.0
2018-Aug-11 16:00N 53°20' E 007°12'0 0.0
2018-Aug-11 15:30N 53°20' E 007°12'0 0.0
2018-Aug-11 15:00N 53°20' E 007°12'0 0.0
2018-Aug-11 14:26N 53°20' E 007°12'0 0.0
2018-Aug-11 14:01N 53°20' E 007°12'0 0.0
2018-Aug-11 13:30N 53°20' E 007°12'0 0.0
2018-Aug-11 13:00N 53°20' E 007°12'0 0.0
2018-Aug-11 12:26N 53°20' E 007°12'0 0.0
2018-Aug-11 12:00N 53°20' E 007°12'0 0.0
2018-Aug-11 11:30N 53°20' E 007°12'0 0.0
2018-Aug-11 11:00N 53°20' E 007°12'0 0.0
2018-Aug-11 10:30N 53°20' E 007°12'0 0.0
2018-Aug-11 10:00N 53°20' E 007°12'0 0.0
2018-Aug-11 09:30N 53°20' E 007°12'0 0.0
2018-Aug-11 09:00N 53°20' E 007°12'0 0.0
2018-Aug-11 08:30N 53°20' E 007°12'0 0.0
2018-Aug-11 08:00N 53°20' E 007°12'0 0.0
2018-Aug-11 07:30N 53°20' E 007°12'0 0.0
2018-Aug-11 07:00N 53°20' E 007°12'0 0.0
2018-Aug-11 06:30N 53°20' E 007°12'0 0.0
2018-Aug-11 06:00N 53°20' E 007°12'0 0.0
2018-Aug-11 05:30N 53°20' E 007°12'0 0.0
2018-Aug-11 05:00N 53°20' E 007°12'0 0.0
2018-Aug-11 04:30N 53°20' E 007°12'0 0.0
2018-Aug-11 04:01N 53°20' E 007°12'0 0.0
2018-Aug-11 03:30N 53°20' E 007°12'0 0.0
2018-Aug-11 03:00N 53°20' E 007°12'0 0.0
2018-Aug-11 02:30N 53°20' E 007°12'0 0.0
2018-Aug-11 02:00N 53°20' E 007°12'0 0.0
2018-Aug-11 01:30N 53°20' E 007°12'0 0.0
2018-Aug-11 01:00N 53°20' E 007°12'0 0.0
2018-Aug-11 00:30N 53°20' E 007°12'0 0.0
2018-Aug-11 00:00N 53°20' E 007°12'0 0.0
2018-Aug-10 23:30N 53°20' E 007°12'0 0.0
2018-Aug-10 23:00N 53°20' E 007°12'0 0.0
2018-Aug-10 22:30N 53°20' E 007°12'0 0.0
2018-Aug-10 22:00N 53°20' E 007°12'0 0.0
2018-Aug-10 21:28N 53°20' E 007°12'0 0.0
2018-Aug-10 21:00N 53°20' E 007°12'0 0.0
2018-Aug-10 20:30N 53°20' E 007°12'0 0.0
2018-Aug-10 20:00N 53°20' E 007°12'0 0.0
2018-Aug-10 19:30N 53°20' E 007°12'0 0.0
2018-Aug-10 19:01N 53°20' E 007°12'0 0.0
2018-Aug-10 18:30N 53°20' E 007°12'0 0.0
2018-Aug-10 17:54N 53°20' E 007°12'0 0.0
2018-Aug-10 17:30N 53°20' E 007°12'0 0.0
2018-Aug-10 16:58N 53°20' E 007°12'0 0.0
2018-Aug-10 16:28N 53°20' E 007°12'0 0.0
2018-Aug-10 15:58N 53°20' E 007°12'0 0.0
2018-Aug-10 15:28N 53°20' E 007°12'0 0.0
2018-Aug-10 14:58N 53°20' E 007°12'0 0.0
2018-Aug-10 14:28N 53°20' E 007°12'0 0.0
2018-Aug-10 13:58N 53°20' E 007°12'0 0.0
2018-Aug-10 13:28N 53°20' E 007°12'0 0.0
2018-Aug-10 12:58N 53°20' E 007°12'0 0.0
2018-Aug-10 12:28N 53°20' E 007°12'0 0.0
2018-Aug-10 11:58N 53°20' E 007°12'0 0.0
2018-Aug-10 11:29N 53°20' E 007°12'0 0.0
2018-Aug-10 10:58N 53°20' E 007°12'0 0.0
2018-Aug-10 10:28N 53°20' E 007°12'0 0.0
2018-Aug-10 09:59N 53°20' E 007°12'0 0.0
2018-Aug-10 09:29N 53°20' E 007°12'0 0.0
2018-Aug-10 08:59N 53°20' E 007°12'0 0.0
2018-Aug-10 08:29N 53°20' E 007°12'0 0.0
2018-Aug-10 07:59N 53°20' E 007°12'0 0.0
2018-Aug-10 07:28N 53°20' E 007°12'0 0.0
2018-Aug-10 06:59N 53°20' E 007°12'0 0.0
2018-Aug-10 06:29N 53°20' E 007°12'0 0.0
2018-Aug-10 05:56N 53°20' E 007°12'0 0.0
2018-Aug-10 05:28N 53°20' E 007°12'0 0.2
2018-Aug-10 05:00N 53°20' E 007°12'0 0.9
2018-Aug-10 04:29N 53°20' E 007°11'1 2.5
2018-Aug-10 04:00N 53°20' E 007°09'3 5.9
2018-Aug-10 03:25N 53°19' E 007°03'1 2.7
2018-Aug-10 02:59N 53°19' E 007°02'0 0.1
2018-Aug-10 02:29N 53°19' E 007°01'0 0.0
2018-Aug-10 01:59N 53°19' E 007°01'0 0.0
2018-Aug-10 01:29N 53°19' E 007°01'0 0.0
2018-Aug-10 00:55N 53°19' E 007°01'0 0.0
2018-Aug-10 00:29N 53°19' E 007°01'0 0.0
2018-Aug-09 23:59N 53°19' E 007°01'0 0.1
2018-Aug-09 23:25N 53°19' E 007°02'0 0.1
2018-Aug-09 22:55N 53°19' E 007°02'0 0.0
2018-Aug-09 22:25N 53°19' E 007°02'0 0.1
2018-Aug-09 21:59N 53°19' E 007°02'0 0.0
2018-Aug-09 21:29N 53°19' E 007°02'0 0.0
2018-Aug-09 20:43N 53°19' E 007°02'0 1.7
2018-Aug-09 20:30N 53°19' E 007°02'2 3.2
2018-Aug-09 20:01N 53°20' E 006°60'611.3
2018-Aug-09 19:29N 53°25' E 006°56'55 9.6
2018-Aug-09 13:48N 53°33' E 005°25'410.0
2018-Aug-09 13:21N 53°32' E 005°18'5 9.6
2018-Aug-09 12:50N 53°30' E 005°09'3 9.4
2018-Aug-09 12:29N 53°29' E 005°04'5 9.5
2018-Aug-09 11:56N 53°27' E 004°56'4 9.2
2018-Aug-09 11:30N 53°25' E 004°50'16 9.1
2018-Aug-09 09:43N 53°12' E 004°34'15 9.6
2018-Aug-09 08:12N 52°60' E 004°22'2 9.6
2018-Aug-09 08:00N 52°58' E 004°21'5 9.5
2018-Aug-09 07:30N 52°54' E 004°17'5 9.4
2018-Aug-09 07:00N 52°50' E 004°13'7 9.5
2018-Aug-09 06:18N 52°45' E 004°06'3 9.3
2018-Aug-09 06:00N 52°43' E 004°03'8 9.4
2018-Aug-09 05:07N 52°37' E 003°54'9 9.9
2018-Aug-09 04:16N 52°30' E 003°44'310.2
2018-Aug-09 03:58N 52°28' E 003°40'610.4
2018-Aug-09 03:25N 52°24' E 003°34'510.7
2018-Aug-09 02:55N 52°20' E 003°28'510.9
2018-Aug-09 02:25N 52°16' E 003°22'5111.1
2018-Aug-08 21:47N 51°52' E 002°08'310.9
2018-Aug-08 21:30N 51°51' E 002°03'610.9
2018-Aug-08 21:00N 51°49' E 001°55'5 9.4
2018-Aug-08 20:30N 51°49' E 001°48'5 9.8
2018-Aug-08 20:00N 51°51' E 001°40'5 9.2
2018-Aug-08 19:31N 51°52' E 001°33'4 8.3
2018-Aug-08 19:00N 51°56' E 001°29'5 9.3
2018-Aug-08 18:30N 51°56' E 001°22'4 7.7
2018-Aug-08 18:01N 51°58' E 001°17'3 6.5
2018-Aug-08 17:30N 52°00' E 001°13'3 5.5
2018-Aug-08 17:00N 52°02' E 001°10'0 0.0
2018-Aug-08 16:30N 52°02' E 001°10'0 0.0
2018-Aug-08 15:59N 52°02' E 001°10'0 0.0
2018-Aug-08 15:29N 52°02' E 001°10'0 0.0
2018-Aug-08 14:59N 52°02' E 001°10'0 0.0
2018-Aug-08 14:29N 52°02' E 001°10'0 0.0
2018-Aug-08 13:59N 52°02' E 001°10'0 0.0
2018-Aug-08 13:29N 52°02' E 001°10'0 0.0
2018-Aug-08 12:59N 52°02' E 001°10'0 0.0
2018-Aug-08 12:29N 52°02' E 001°10'0 0.0
2018-Aug-08 11:59N 52°02' E 001°10'0 0.0
2018-Aug-08 11:29N 52°02' E 001°10'0 0.0
2018-Aug-08 10:59N 52°02' E 001°10'0 0.0
2018-Aug-08 10:29N 52°02' E 001°10'0 0.0
2018-Aug-08 09:59N 52°02' E 001°10'0 0.0
2018-Aug-08 09:29N 52°02' E 001°10'0 0.0
2018-Aug-08 08:59N 52°02' E 001°10'0 0.0
2018-Aug-08 08:29N 52°02' E 001°10'0 0.0
2018-Aug-08 07:59N 52°02' E 001°10'0 0.0
2018-Aug-08 07:29N 52°02' E 001°10'0 0.0
2018-Aug-08 06:59N 52°02' E 001°10'0 0.0
2018-Aug-08 06:29N 52°02' E 001°10'0 0.0
2018-Aug-08 05:59N 52°02' E 001°10'0 0.0
2018-Aug-08 05:29N 52°02' E 001°10'0 0.0
2018-Aug-08 04:59N 52°02' E 001°10'0 0.0
2018-Aug-08 04:30N 52°02' E 001°10'0 0.0
2018-Aug-08 04:00N 52°02' E 001°10'0 0.0
2018-Aug-08 03:30N 52°02' E 001°10'0 0.0
2018-Aug-08 03:00N 52°02' E 001°10'0 0.0
2018-Aug-08 02:30N 52°02' E 001°10'0 0.0
2018-Aug-08 02:00N 52°02' E 001°10'0 0.0
2018-Aug-08 01:28N 52°02' E 001°10'0 0.0
2018-Aug-08 01:00N 52°02' E 001°10'0 0.0
2018-Aug-08 00:30N 52°02' E 001°10'0 0.0
2018-Aug-08 00:00N 52°02' E 001°10'0 0.0
2018-Aug-07 23:30N 52°02' E 001°10'0 0.0
2018-Aug-07 23:00N 52°02' E 001°10'0 0.0
2018-Aug-07 22:30N 52°02' E 001°10'0 0.0
2018-Aug-07 22:00N 52°02' E 001°10'0 0.0
2018-Aug-07 21:30N 52°02' E 001°10'0 0.0
2018-Aug-07 21:00N 52°02' E 001°10'0 0.0
2018-Aug-07 20:30N 52°02' E 001°10'0 0.0
2018-Aug-07 19:58N 52°02' E 001°10'0 0.0
2018-Aug-07 19:28N 52°02' E 001°10'0 0.0
2018-Aug-07 18:58N 52°02' E 001°10'0 0.0
2018-Aug-07 18:29N 52°02' E 001°10'0 0.0
2018-Aug-07 17:59N 52°02' E 001°10'0 0.0
2018-Aug-07 17:29N 52°02' E 001°10'0 0.0
2018-Aug-07 16:59N 52°02' E 001°10'0 0.0
2018-Aug-07 16:29N 52°02' E 001°10'0 0.0
2018-Aug-07 15:59N 52°02' E 001°10'0 0.0
2018-Aug-07 15:29N 52°02' E 001°10'0 0.0
2018-Aug-07 14:59N 52°02' E 001°10'0 0.0
2018-Aug-07 14:29N 52°02' E 001°10'0 0.0
2018-Aug-07 13:59N 52°02' E 001°10'0 0.0
2018-Aug-07 13:29N 52°02' E 001°10'0 0.0
2018-Aug-07 12:59N 52°02' E 001°10'0 0.0
2018-Aug-07 12:29N 52°02' E 001°10'0 0.0
2018-Aug-07 11:59N 52°02' E 001°10'0 0.0
2018-Aug-07 11:29N 52°02' E 001°10'0 0.0
2018-Aug-07 10:59N 52°02' E 001°10'0 0.0
2018-Aug-07 10:29N 52°02' E 001°10'0 0.0
2018-Aug-07 09:59N 52°02' E 001°10'0 0.0
2018-Aug-07 09:29N 52°02' E 001°10'0 0.0
2018-Aug-07 08:59N 52°02' E 001°10'0 0.0
2018-Aug-07 08:29N 52°02' E 001°10'0 0.0
2018-Aug-07 07:56N 52°02' E 001°10'0 0.0
2018-Aug-07 07:29N 52°02' E 001°10'0 0.0
2018-Aug-07 06:59N 52°02' E 001°10'0 0.0
2018-Aug-07 06:29N 52°02' E 001°10'0 0.0
2018-Aug-07 05:56N 52°02' E 001°10'0 0.0
2018-Aug-07 05:29N 52°02' E 001°10'0 0.0
2018-Aug-07 04:59N 52°02' E 001°10'0 0.0
2018-Aug-07 04:29N 52°02' E 001°10'0 0.0
2018-Aug-07 03:59N 52°02' E 001°10'0 0.0
2018-Aug-07 03:29N 52°02' E 001°10'0 0.0
2018-Aug-07 02:59N 52°02' E 001°10'0 0.0
2018-Aug-07 02:29N 52°02' E 001°10'0 0.0
2018-Aug-07 01:56N 52°02' E 001°10'0 0.0
2018-Aug-07 01:26N 52°02' E 001°10'0 0.0
2018-Aug-07 00:59N 52°02' E 001°10'0 0.0
2018-Aug-07 00:29N 52°02' E 001°10'0 0.0
2018-Aug-06 23:59N 52°02' E 001°10'0 0.0
2018-Aug-06 23:29N 52°02' E 001°10'0 0.0
2018-Aug-06 22:59N 52°02' E 001°10'0 0.0
2018-Aug-06 22:29N 52°02' E 001°10'0 0.0
2018-Aug-06 21:59N 52°02' E 001°10'0 0.0
2018-Aug-06 21:29N 52°02' E 001°10'0 0.0
2018-Aug-06 20:59N 52°02' E 001°10'0 0.0
2018-Aug-06 20:29N 52°02' E 001°10'0 0.0
2018-Aug-06 20:00N 52°02' E 001°10'0 0.9
2018-Aug-06 19:31N 52°02' E 001°09'3 6.5
2018-Aug-06 19:00N 52°00' E 001°13'4 8.0
2018-Aug-06 18:30N 51°57' E 001°18'4 7.5
2018-Aug-06 18:00N 51°56' E 001°24'5 9.3
2018-Aug-06 17:30N 51°56' E 001°31'2 5.0
2018-Aug-06 17:00N 51°55' E 001°34'2 4.9
2018-Aug-06 16:30N 51°52' E 001°34'3 5.4
2018-Aug-06 16:00N 51°51' E 001°38'3 6.9
2018-Aug-06 15:30N 51°53' E 001°43'2 4.3
2018-Aug-06 15:00N 51°51' E 001°46'2 5.0
2018-Aug-06 14:30N 51°49' E 001°48'3 6.7
2018-Aug-06 14:00N 51°46' E 001°49'4 7.9
2018-Aug-06 13:30N 51°42' E 001°50'4 8.2
2018-Aug-06 13:00N 51°38' E 001°51'4 8.3
2018-Aug-06 12:30N 51°34' E 001°54'4 8.1
2018-Aug-06 12:00N 51°31' E 001°57'4 7.3
2018-Aug-06 11:30N 51°27' E 001°59'4 7.7
2018-Aug-06 11:00N 51°24' E 002°02'4 7.8
2018-Aug-06 10:30N 51°20' E 002°05'4 7.4
2018-Aug-06 10:00N 51°17' E 002°06'4 8.9
2018-Aug-06 09:30N 51°13' E 002°01'4 8.6
2018-Aug-06 09:00N 51°11' E 001°56'4 8.7
2018-Aug-06 08:30N 51°08' E 001°50'4 9.0
2018-Aug-06 08:00N 51°05' E 001°45'5 9.4
2018-Aug-06 07:30N 51°01' E 001°40'5 9.8
2018-Aug-06 06:59N 50°57' E 001°35'510.3
2018-Aug-06 06:30N 50°54' E 001°30'510.7
2018-Aug-06 06:00N 50°48' E 001°28'510.0
2018-Aug-06 05:30N 50°44' E 001°25'5 9.6
2018-Aug-06 05:00N 50°40' E 001°21'5 9.3
2018-Aug-06 04:30N 50°37' E 001°15'5 9.1
2018-Aug-06 04:00N 50°34' E 001°10'  

Dump ship's entire track history